sensor_id;sensor_type;location;lat;lon;timestamp;temperature;humidity
43808;DHT22;29438;50.664;10.098;2024-02-04T00:01:27;7.40;94.60
43808;DHT22;29438;50.664;10.098;2024-02-04T00:03:52;7.40;94.60
43808;DHT22;29438;50.664;10.098;2024-02-04T00:06:18;7.30;94.50
43808;DHT22;29438;50.664;10.098;2024-02-04T00:08:43;7.30;94.60
43808;DHT22;29438;50.664;10.098;2024-02-04T00:11:09;7.40;94.60
43808;DHT22;29438;50.664;10.098;2024-02-04T00:13:40;7.30;94.50
43808;DHT22;29438;50.664;10.098;2024-02-04T00:16:05;7.30;94.60
43808;DHT22;29438;50.664;10.098;2024-02-04T00:18:31;7.30;94.60
43808;DHT22;29438;50.664;10.098;2024-02-04T00:20:57;7.30;94.80
43808;DHT22;29438;50.664;10.098;2024-02-04T00:23:22;7.40;94.70
43808;DHT22;29438;50.664;10.098;2024-02-04T00:25:48;7.30;94.70
43808;DHT22;29438;50.664;10.098;2024-02-04T00:28:13;7.40;94.70
43808;DHT22;29438;50.664;10.098;2024-02-04T00:30:39;7.40;94.50
43808;DHT22;29438;50.664;10.098;2024-02-04T00:33:05;7.40;94.30
43808;DHT22;29438;50.664;10.098;2024-02-04T00:35:30;7.30;94.40
43808;DHT22;29438;50.664;10.098;2024-02-04T00:37:56;7.40;94.40
43808;DHT22;29438;50.664;10.098;2024-02-04T00:40:23;7.40;94.30
43808;DHT22;29438;50.664;10.098;2024-02-04T00:42:48;7.40;94.40
43808;DHT22;29438;50.664;10.098;2024-02-04T00:45:14;7.40;94.40
43808;DHT22;29438;50.664;10.098;2024-02-04T00:47:39;7.50;94.20
43808;DHT22;29438;50.664;10.098;2024-02-04T00:50:06;7.40;94.30
43808;DHT22;29438;50.664;10.098;2024-02-04T00:52:31;7.40;94.30
43808;DHT22;29438;50.664;10.098;2024-02-04T00:54:57;7.40;94.40
43808;DHT22;29438;50.664;10.098;2024-02-04T00:57:22;7.40;94.50
43808;DHT22;29438;50.664;10.098;2024-02-04T00:59:48;7.40;94.40
43808;DHT22;29438;50.664;10.098;2024-02-04T01:02:15;7.40;94.40
43808;DHT22;29438;50.664;10.098;2024-02-04T01:04:41;7.40;94.50
43808;DHT22;29438;50.664;10.098;2024-02-04T01:07:06;7.40;94.50
43808;DHT22;29438;50.664;10.098;2024-02-04T01:09:32;7.40;94.40
43808;DHT22;29438;50.664;10.098;2024-02-04T01:11:57;7.40;94.20
43808;DHT22;29438;50.664;10.098;2024-02-04T01:14:23;7.40;94.20
43808;DHT22;29438;50.664;10.098;2024-02-04T01:16:48;7.50;94.00
43808;DHT22;29438;50.664;10.098;2024-02-04T01:19:14;7.50;94.00
43808;DHT22;29438;50.664;10.098;2024-02-04T01:21:39;7.50;93.90
43808;DHT22;29438;50.664;10.098;2024-02-04T01:24:05;7.50;93.90
43808;DHT22;29438;50.664;10.098;2024-02-04T01:26:31;7.50;93.80
43808;DHT22;29438;50.664;10.098;2024-02-04T01:28:56;7.50;93.90
43808;DHT22;29438;50.664;10.098;2024-02-04T01:31:22;7.50;93.80
43808;DHT22;29438;50.664;10.098;2024-02-04T01:33:47;7.50;93.70
43808;DHT22;29438;50.664;10.098;2024-02-04T01:36:13;7.50;93.50
43808;DHT22;29438;50.664;10.098;2024-02-04T01:38:38;7.50;93.50
43808;DHT22;29438;50.664;10.098;2024-02-04T01:41:04;7.40;93.60
43808;DHT22;29438;50.664;10.098;2024-02-04T01:43:29;7.40;93.70
43808;DHT22;29438;50.664;10.098;2024-02-04T01:45:57;7.40;93.80
43808;DHT22;29438;50.664;10.098;2024-02-04T01:48:23;7.40;93.80
43808;DHT22;29438;50.664;10.098;2024-02-04T01:50:50;7.40;93.80
43808;DHT22;29438;50.664;10.098;2024-02-04T01:53:21;7.30;93.80
43808;DHT22;29438;50.664;10.098;2024-02-04T01:55:47;7.30;93.90
43808;DHT22;29438;50.664;10.098;2024-02-04T01:58:14;7.30;93.90
43808;DHT22;29438;50.664;10.098;2024-02-04T02:00:40;7.30;94.00
43808;DHT22;29438;50.664;10.098;2024-02-04T02:03:06;7.40;93.90
43808;DHT22;29438;50.664;10.098;2024-02-04T02:05:32;7.40;93.90
43808;DHT22;29438;50.664;10.098;2024-02-04T02:07:58;7.40;93.90
43808;DHT22;29438;50.664;10.098;2024-02-04T02:10:24;7.50;93.80
43808;DHT22;29438;50.664;10.098;2024-02-04T02:13:07;7.40;93.70
43808;DHT22;29438;50.664;10.098;2024-02-04T02:15:49;7.50;93.80
43808;DHT22;29438;50.664;10.098;2024-02-04T02:18:25;7.40;93.80
43808;DHT22;29438;50.664;10.098;2024-02-04T02:23:34;7.50;93.70
43808;DHT22;29438;50.664;10.098;2024-02-04T02:26:00;7.40;93.70
43808;DHT22;29438;50.664;10.098;2024-02-04T02:28:27;7.50;93.60
43808;DHT22;29438;50.664;10.098;2024-02-04T02:30:53;7.50;93.50
43808;DHT22;29438;50.664;10.098;2024-02-04T02:33:18;7.50;93.50
43808;DHT22;29438;50.664;10.098;2024-02-04T02:35:45;7.50;93.50
43808;DHT22;29438;50.664;10.098;2024-02-04T02:38:24;7.50;93.60
43808;DHT22;29438;50.664;10.098;2024-02-04T02:41:04;7.40;93.60
43808;DHT22;29438;50.664;10.098;2024-02-04T02:43:30;7.40;93.80
43808;DHT22;29438;50.664;10.098;2024-02-04T02:45:57;7.40;93.70
43808;DHT22;29438;50.664;10.098;2024-02-04T02:48:24;7.40;93.70
43808;DHT22;29438;50.664;10.098;2024-02-04T02:50:50;7.40;93.80
43808;DHT22;29438;50.664;10.098;2024-02-04T02:53:15;7.40;93.70
43808;DHT22;29438;50.664;10.098;2024-02-04T02:55:41;7.50;93.70
43808;DHT22;29438;50.664;10.098;2024-02-04T02:58:07;7.50;93.60
43808;DHT22;29438;50.664;10.098;2024-02-04T03:00:32;7.40;93.70
43808;DHT22;29438;50.664;10.098;2024-02-04T03:02:58;7.40;93.70
43808;DHT22;29438;50.664;10.098;2024-02-04T03:05:24;7.40;93.70
43808;DHT22;29438;50.664;10.098;2024-02-04T03:07:50;7.40;93.70
43808;DHT22;29438;50.664;10.098;2024-02-04T03:10:15;7.40;93.70
43808;DHT22;29438;50.664;10.098;2024-02-04T03:12:41;7.40;93.70
43808;DHT22;29438;50.664;10.098;2024-02-04T03:15:06;7.40;93.70
43808;DHT22;29438;50.664;10.098;2024-02-04T03:17:32;7.40;93.70
43808;DHT22;29438;50.664;10.098;2024-02-04T03:19:57;7.40;93.70
43808;DHT22;29438;50.664;10.098;2024-02-04T03:22:23;7.40;93.70
43808;DHT22;29438;50.664;10.098;2024-02-04T03:24:49;7.30;93.70
43808;DHT22;29438;50.664;10.098;2024-02-04T03:27:17;7.40;93.70
43808;DHT22;29438;50.664;10.098;2024-02-04T03:29:43;7.40;93.70
43808;DHT22;29438;50.664;10.098;2024-02-04T03:32:10;7.40;93.60
43808;DHT22;29438;50.664;10.098;2024-02-04T03:34:36;7.40;93.60
43808;DHT22;29438;50.664;10.098;2024-02-04T03:37:01;7.30;93.70
43808;DHT22;29438;50.664;10.098;2024-02-04T03:39:27;7.30;93.80
43808;DHT22;29438;50.664;10.098;2024-02-04T03:41:52;7.30;93.80
43808;DHT22;29438;50.664;10.098;2024-02-04T03:44:18;7.20;94.00
43808;DHT22;29438;50.664;10.098;2024-02-04T03:46:46;7.30;94.10
43808;DHT22;29438;50.664;10.098;2024-02-04T03:49:13;7.20;94.00
43808;DHT22;29438;50.664;10.098;2024-02-04T03:51:39;7.20;94.10
43808;DHT22;29438;50.664;10.098;2024-02-04T03:54:04;7.20;94.20
43808;DHT22;29438;50.664;10.098;2024-02-04T03:56:30;7.10;94.20
43808;DHT22;29438;50.664;10.098;2024-02-04T03:58:56;7.20;94.30
43808;DHT22;29438;50.664;10.098;2024-02-04T04:01:21;7.10;94.20
43808;DHT22;29438;50.664;10.098;2024-02-04T04:03:47;7.10;94.30
43808;DHT22;29438;50.664;10.098;2024-02-04T04:06:12;7.10;94.40
43808;DHT22;29438;50.664;10.098;2024-02-04T04:08:38;7.10;94.40
43808;DHT22;29438;50.664;10.098;2024-02-04T04:11:04;7.10;94.40
43808;DHT22;29438;50.664;10.098;2024-02-04T04:13:29;7.10;94.40
43808;DHT22;29438;50.664;10.098;2024-02-04T04:15:55;7.10;94.40
43808;DHT22;29438;50.664;10.098;2024-02-04T04:18:21;7.10;94.50
43808;DHT22;29438;50.664;10.098;2024-02-04T04:20:46;7.10;94.50
43808;DHT22;29438;50.664;10.098;2024-02-04T04:23:15;7.10;94.50
43808;DHT22;29438;50.664;10.098;2024-02-04T04:25:40;7.10;94.50
43808;DHT22;29438;50.664;10.098;2024-02-04T04:28:06;7.10;94.50
43808;DHT22;29438;50.664;10.098;2024-02-04T04:30:31;7.10;94.50
43808;DHT22;29438;50.664;10.098;2024-02-04T04:32:57;7.20;94.40
43808;DHT22;29438;50.664;10.098;2024-02-04T04:35:24;7.10;94.40
43808;DHT22;29438;50.664;10.098;2024-02-04T04:37:49;7.20;94.40
43808;DHT22;29438;50.664;10.098;2024-02-04T04:40:15;7.20;94.40
43808;DHT22;29438;50.664;10.098;2024-02-04T04:42:40;7.20;94.30
43808;DHT22;29438;50.664;10.098;2024-02-04T04:45:07;7.20;94.40
43808;DHT22;29438;50.664;10.098;2024-02-04T04:47:33;7.20;94.40
43808;DHT22;29438;50.664;10.098;2024-02-04T04:49:59;7.20;94.20
43808;DHT22;29438;50.664;10.098;2024-02-04T04:52:25;7.20;94.20
43808;DHT22;29438;50.664;10.098;2024-02-04T04:54:50;7.30;94.20
43808;DHT22;29438;50.664;10.098;2024-02-04T04:57:16;7.30;94.10
43808;DHT22;29438;50.664;10.098;2024-02-04T04:59:41;7.30;94.10
43808;DHT22;29438;50.664;10.098;2024-02-04T05:02:07;7.20;94.10
43808;DHT22;29438;50.664;10.098;2024-02-04T05:04:32;7.30;94.10
43808;DHT22;29438;50.664;10.098;2024-02-04T05:06:58;7.30;94.10
43808;DHT22;29438;50.664;10.098;2024-02-04T05:09:23;7.20;94.10
43808;DHT22;29438;50.664;10.098;2024-02-04T05:11:49;7.20;94.10
43808;DHT22;29438;50.664;10.098;2024-02-04T05:14:14;7.20;94.00
43808;DHT22;29438;50.664;10.098;2024-02-04T05:16:40;7.30;94.10
43808;DHT22;29438;50.664;10.098;2024-02-04T05:19:05;7.30;94.10
43808;DHT22;29438;50.664;10.098;2024-02-04T05:21:31;7.30;94.10
43808;DHT22;29438;50.664;10.098;2024-02-04T05:23:56;7.30;94.20
43808;DHT22;29438;50.664;10.098;2024-02-04T05:26:22;7.20;94.20
43808;DHT22;29438;50.664;10.098;2024-02-04T05:28:47;7.30;94.10
43808;DHT22;29438;50.664;10.098;2024-02-04T05:31:13;7.30;94.10
43808;DHT22;29438;50.664;10.098;2024-02-04T05:33:38;7.30;94.00
43808;DHT22;29438;50.664;10.098;2024-02-04T05:36:04;7.30;93.90
43808;DHT22;29438;50.664;10.098;2024-02-04T05:38:30;7.30;94.00
43808;DHT22;29438;50.664;10.098;2024-02-04T05:40:56;7.30;94.00
43808;DHT22;29438;50.664;10.098;2024-02-04T05:43:21;7.20;94.10
43808;DHT22;29438;50.664;10.098;2024-02-04T05:45:47;7.30;94.10
43808;DHT22;29438;50.664;10.098;2024-02-04T05:48:12;7.30;94.10
43808;DHT22;29438;50.664;10.098;2024-02-04T05:50:38;7.30;94.00
43808;DHT22;29438;50.664;10.098;2024-02-04T05:53:04;7.40;93.90
43808;DHT22;29438;50.664;10.098;2024-02-04T05:55:30;7.30;93.90
43808;DHT22;29438;50.664;10.098;2024-02-04T05:57:55;7.30;93.90
43808;DHT22;29438;50.664;10.098;2024-02-04T06:00:21;7.30;94.00
43808;DHT22;29438;50.664;10.098;2024-02-04T06:02:46;7.30;94.10
43808;DHT22;29438;50.664;10.098;2024-02-04T06:05:14;7.30;94.00
43808;DHT22;29438;50.664;10.098;2024-02-04T06:07:39;7.30;94.10
43808;DHT22;29438;50.664;10.098;2024-02-04T06:10:09;7.30;94.20
43808;DHT22;29438;50.664;10.098;2024-02-04T06:12:34;7.30;94.20
43808;DHT22;29438;50.664;10.098;2024-02-04T06:15:00;7.30;94.30
43808;DHT22;29438;50.664;10.098;2024-02-04T06:17:25;7.30;94.30
43808;DHT22;29438;50.664;10.098;2024-02-04T06:19:51;7.30;94.30
43808;DHT22;29438;50.664;10.098;2024-02-04T06:22:16;7.30;94.20
43808;DHT22;29438;50.664;10.098;2024-02-04T06:24:42;7.30;94.10
43808;DHT22;29438;50.664;10.098;2024-02-04T06:27:08;7.30;94.10
43808;DHT22;29438;50.664;10.098;2024-02-04T06:29:34;7.30;94.20
43808;DHT22;29438;50.664;10.098;2024-02-04T06:31:59;7.30;94.30
43808;DHT22;29438;50.664;10.098;2024-02-04T06:34:25;7.30;94.40
43808;DHT22;29438;50.664;10.098;2024-02-04T06:36:50;7.20;94.40
43808;DHT22;29438;50.664;10.098;2024-02-04T06:39:16;7.20;94.50
43808;DHT22;29438;50.664;10.098;2024-02-04T06:41:42;7.20;94.60
43808;DHT22;29438;50.664;10.098;2024-02-04T06:44:07;7.20;94.60
43808;DHT22;29438;50.664;10.098;2024-02-04T06:46:33;7.20;94.60
43808;DHT22;29438;50.664;10.098;2024-02-04T06:48:59;7.20;94.60
43808;DHT22;29438;50.664;10.098;2024-02-04T06:51:24;7.20;94.60
43808;DHT22;29438;50.664;10.098;2024-02-04T06:53:50;7.20;94.60
43808;DHT22;29438;50.664;10.098;2024-02-04T06:56:15;7.20;94.60
43808;DHT22;29438;50.664;10.098;2024-02-04T06:58:41;7.20;94.70
43808;DHT22;29438;50.664;10.098;2024-02-04T07:01:07;7.30;94.70
43808;DHT22;29438;50.664;10.098;2024-02-04T07:03:33;7.20;94.70
43808;DHT22;29438;50.664;10.098;2024-02-04T07:05:59;7.20;94.80
43808;DHT22;29438;50.664;10.098;2024-02-04T07:08:25;7.20;94.60
43808;DHT22;29438;50.664;10.098;2024-02-04T07:10:51;7.30;94.70
43808;DHT22;29438;50.664;10.098;2024-02-04T07:13:17;7.30;94.60
43808;DHT22;29438;50.664;10.098;2024-02-04T07:15:43;7.30;94.30
43808;DHT22;29438;50.664;10.098;2024-02-04T07:18:09;7.30;94.20
43808;DHT22;29438;50.664;10.098;2024-02-04T07:20:35;7.50;93.80
43808;DHT22;29438;50.664;10.098;2024-02-04T07:23:00;7.50;93.80
43808;DHT22;29438;50.664;10.098;2024-02-04T07:25:26;7.40;93.60
43808;DHT22;29438;50.664;10.098;2024-02-04T07:27:51;7.50;93.50
43808;DHT22;29438;50.664;10.098;2024-02-04T07:30:17;7.50;93.10
43808;DHT22;29438;50.664;10.098;2024-02-04T07:32:43;7.60;92.70
43808;DHT22;29438;50.664;10.098;2024-02-04T07:35:09;7.60;92.70
43808;DHT22;29438;50.664;10.098;2024-02-04T07:37:37;7.60;92.50
43808;DHT22;29438;50.664;10.098;2024-02-04T07:40:03;7.60;92.50
43808;DHT22;29438;50.664;10.098;2024-02-04T07:42:30;7.70;92.20
43808;DHT22;29438;50.664;10.098;2024-02-04T07:44:56;7.70;92.10
43808;DHT22;29438;50.664;10.098;2024-02-04T07:47:22;7.70;92.00
43808;DHT22;29438;50.664;10.098;2024-02-04T07:49:48;7.70;92.00
43808;DHT22;29438;50.664;10.098;2024-02-04T07:52:14;7.70;92.10
43808;DHT22;29438;50.664;10.098;2024-02-04T07:54:40;7.70;92.20
43808;DHT22;29438;50.664;10.098;2024-02-04T07:57:06;7.70;92.30
43808;DHT22;29438;50.664;10.098;2024-02-04T07:59:31;7.70;92.60
43808;DHT22;29438;50.664;10.098;2024-02-04T08:01:58;7.70;92.70
43808;DHT22;29438;50.664;10.098;2024-02-04T08:04:23;7.60;93.00
43808;DHT22;29438;50.664;10.098;2024-02-04T08:06:49;7.60;93.50
43808;DHT22;29438;50.664;10.098;2024-02-04T08:09:15;7.50;93.90
43808;DHT22;29438;50.664;10.098;2024-02-04T08:11:40;7.50;94.10
43808;DHT22;29438;50.664;10.098;2024-02-04T08:14:06;7.50;94.40
43808;DHT22;29438;50.664;10.098;2024-02-04T08:16:31;7.50;94.30
43808;DHT22;29438;50.664;10.098;2024-02-04T08:18:58;7.40;94.30
43808;DHT22;29438;50.664;10.098;2024-02-04T08:21:23;7.50;94.30
43808;DHT22;29438;50.664;10.098;2024-02-04T08:23:49;7.40;94.40
43808;DHT22;29438;50.664;10.098;2024-02-04T08:26:14;7.40;94.30
43808;DHT22;29438;50.664;10.098;2024-02-04T08:28:40;7.40;94.30
43808;DHT22;29438;50.664;10.098;2024-02-04T08:31:05;7.40;94.30
43808;DHT22;29438;50.664;10.098;2024-02-04T08:33:31;7.40;94.10
43808;DHT22;29438;50.664;10.098;2024-02-04T08:35:56;7.40;93.90
43808;DHT22;29438;50.664;10.098;2024-02-04T08:38:22;7.40;93.90
43808;DHT22;29438;50.664;10.098;2024-02-04T08:40:47;7.40;94.00
43808;DHT22;29438;50.664;10.098;2024-02-04T08:43:13;7.50;94.10
43808;DHT22;29438;50.664;10.098;2024-02-04T08:45:38;7.60;94.00
43808;DHT22;29438;50.664;10.098;2024-02-04T08:48:04;7.70;93.70
43808;DHT22;29438;50.664;10.098;2024-02-04T08:50:30;7.70;93.40
43808;DHT22;29438;50.664;10.098;2024-02-04T08:52:55;7.80;92.90
43808;DHT22;29438;50.664;10.098;2024-02-04T08:55:21;7.80;93.00
43808;DHT22;29438;50.664;10.098;2024-02-04T08:57:46;7.70;92.90
43808;DHT22;29438;50.664;10.098;2024-02-04T09:00:14;7.80;93.10
43808;DHT22;29438;50.664;10.098;2024-02-04T09:02:39;7.70;93.20
43808;DHT22;29438;50.664;10.098;2024-02-04T09:05:05;7.80;93.40
43808;DHT22;29438;50.664;10.098;2024-02-04T09:07:31;7.90;93.10
43808;DHT22;29438;50.664;10.098;2024-02-04T09:09:57;7.80;93.30
43808;DHT22;29438;50.664;10.098;2024-02-04T09:12:22;7.90;93.20
43808;DHT22;29438;50.664;10.098;2024-02-04T09:14:48;7.90;93.00
43808;DHT22;29438;50.664;10.098;2024-02-04T09:17:13;8.10;92.60
43808;DHT22;29438;50.664;10.098;2024-02-04T09:19:39;8.40;92.60
43808;DHT22;29438;50.664;10.098;2024-02-04T09:22:05;8.50;91.30
43808;DHT22;29438;50.664;10.098;2024-02-04T09:24:30;8.50;91.40
43808;DHT22;29438;50.664;10.098;2024-02-04T09:26:56;8.50;91.30
43808;DHT22;29438;50.664;10.098;2024-02-04T09:29:21;8.70;91.30
43808;DHT22;29438;50.664;10.098;2024-02-04T09:31:47;8.60;91.00
43808;DHT22;29438;50.664;10.098;2024-02-04T09:34:15;8.50;91.00
43808;DHT22;29438;50.664;10.098;2024-02-04T09:36:40;8.60;91.20
43808;DHT22;29438;50.664;10.098;2024-02-04T09:39:06;8.50;90.70
43808;DHT22;29438;50.664;10.098;2024-02-04T09:41:31;8.70;91.00
43808;DHT22;29438;50.664;10.098;2024-02-04T09:43:58;8.70;90.80
43808;DHT22;29438;50.664;10.098;2024-02-04T09:46:24;8.60;91.00
43808;DHT22;29438;50.664;10.098;2024-02-04T09:48:51;8.50;91.50
43808;DHT22;29438;50.664;10.098;2024-02-04T09:51:18;8.50;91.70
43808;DHT22;29438;50.664;10.098;2024-02-04T09:53:44;8.40;91.80
43808;DHT22;29438;50.664;10.098;2024-02-04T09:56:11;8.60;91.70
43808;DHT22;29438;50.664;10.098;2024-02-04T09:58:37;8.50;91.70
43808;DHT22;29438;50.664;10.098;2024-02-04T10:01:04;8.50;92.00
43808;DHT22;29438;50.664;10.098;2024-02-04T10:03:30;8.30;91.90
43808;DHT22;29438;50.664;10.098;2024-02-04T10:05:56;8.40;92.10
43808;DHT22;29438;50.664;10.098;2024-02-04T10:08:22;8.30;92.00
43808;DHT22;29438;50.664;10.098;2024-02-04T10:10:48;8.20;92.40
43808;DHT22;29438;50.664;10.098;2024-02-04T10:13:13;8.20;92.60
43808;DHT22;29438;50.664;10.098;2024-02-04T10:15:39;8.20;92.70
43808;DHT22;29438;50.664;10.098;2024-02-04T10:18:05;8.30;92.80
43808;DHT22;29438;50.664;10.098;2024-02-04T10:20:31;8.40;92.60
43808;DHT22;29438;50.664;10.098;2024-02-04T10:22:57;8.30;92.30
43808;DHT22;29438;50.664;10.098;2024-02-04T10:25:23;8.30;92.40
43808;DHT22;29438;50.664;10.098;2024-02-04T10:27:49;8.30;92.30
43808;DHT22;29438;50.664;10.098;2024-02-04T10:30:15;8.30;92.20
43808;DHT22;29438;50.664;10.098;2024-02-04T10:32:41;8.30;92.20
43808;DHT22;29438;50.664;10.098;2024-02-04T10:35:08;8.30;92.20
43808;DHT22;29438;50.664;10.098;2024-02-04T10:37:34;8.30;92.10
43808;DHT22;29438;50.664;10.098;2024-02-04T10:39:59;8.30;92.30
43808;DHT22;29438;50.664;10.098;2024-02-04T10:42:27;8.50;92.60
43808;DHT22;29438;50.664;10.098;2024-02-04T10:44:58;8.40;92.40
43808;DHT22;29438;50.664;10.098;2024-02-04T10:47:29;8.30;92.60
43808;DHT22;29438;50.664;10.098;2024-02-04T10:49:57;8.40;92.60
43808;DHT22;29438;50.664;10.098;2024-02-04T10:52:27;8.30;92.40
43808;DHT22;29438;50.664;10.098;2024-02-04T10:54:53;8.30;92.40
43808;DHT22;29438;50.664;10.098;2024-02-04T10:57:21;8.30;92.60
43808;DHT22;29438;50.664;10.098;2024-02-04T10:59:52;8.20;92.50
43808;DHT22;29438;50.664;10.098;2024-02-04T11:02:19;8.20;92.70
43808;DHT22;29438;50.664;10.098;2024-02-04T11:04:47;8.30;92.50
43808;DHT22;29438;50.664;10.098;2024-02-04T11:07:13;8.30;92.60
43808;DHT22;29438;50.664;10.098;2024-02-04T11:09:39;8.30;92.50
43808;DHT22;29438;50.664;10.098;2024-02-04T11:12:11;8.30;92.30
43808;DHT22;29438;50.664;10.098;2024-02-04T11:14:40;8.30;92.30
43808;DHT22;29438;50.664;10.098;2024-02-04T11:20:21;8.40;91.90
43808;DHT22;29438;50.664;10.098;2024-02-04T11:28:05;8.40;91.80
43808;DHT22;29438;50.664;10.098;2024-02-04T11:30:35;8.40;92.10
43808;DHT22;29438;50.664;10.098;2024-02-04T11:33:02;8.30;92.20
43808;DHT22;29438;50.664;10.098;2024-02-04T11:35:28;8.40;92.10
43808;DHT22;29438;50.664;10.098;2024-02-04T11:37:54;8.40;92.00
43808;DHT22;29438;50.664;10.098;2024-02-04T11:40:21;8.30;92.10
43808;DHT22;29438;50.664;10.098;2024-02-04T11:42:48;8.30;92.40
43808;DHT22;29438;50.664;10.098;2024-02-04T11:45:14;8.40;92.50
43808;DHT22;29438;50.664;10.098;2024-02-04T11:47:40;8.60;92.00
43808;DHT22;29438;50.664;10.098;2024-02-04T11:50:07;8.70;91.70
43808;DHT22;29438;50.664;10.098;2024-02-04T11:52:33;8.80;91.20
43808;DHT22;29438;50.664;10.098;2024-02-04T11:54:59;8.70;91.00
43808;DHT22;29438;50.664;10.098;2024-02-04T11:57:25;9.00;90.50
43808;DHT22;29438;50.664;10.098;2024-02-04T11:59:52;9.00;90.00
43808;DHT22;29438;50.664;10.098;2024-02-04T12:02:20;9.10;90.10
43808;DHT22;29438;50.664;10.098;2024-02-04T12:04:46;9.00;90.60
43808;DHT22;29438;50.664;10.098;2024-02-04T12:07:13;8.90;91.10
43808;DHT22;29438;50.664;10.098;2024-02-04T12:09:40;8.80;91.70
43808;DHT22;29438;50.664;10.098;2024-02-04T12:12:06;8.70;92.00
43808;DHT22;29438;50.664;10.098;2024-02-04T12:14:31;8.70;92.50
43808;DHT22;29438;50.664;10.098;2024-02-04T12:16:58;8.70;92.50
43808;DHT22;29438;50.664;10.098;2024-02-04T12:19:24;8.50;92.80
43808;DHT22;29438;50.664;10.098;2024-02-04T12:21:49;8.50;93.00
43808;DHT22;29438;50.664;10.098;2024-02-04T12:24:15;8.50;93.10
43808;DHT22;29438;50.664;10.098;2024-02-04T12:26:41;8.60;93.20
43808;DHT22;29438;50.664;10.098;2024-02-04T12:29:07;8.50;93.20
43808;DHT22;29438;50.664;10.098;2024-02-04T12:31:32;8.50;93.20
43808;DHT22;29438;50.664;10.098;2024-02-04T12:33:59;8.50;93.40
43808;DHT22;29438;50.664;10.098;2024-02-04T12:36:27;8.60;93.70
43808;DHT22;29438;50.664;10.098;2024-02-04T12:39:00;8.60;93.60
43808;DHT22;29438;50.664;10.098;2024-02-04T12:41:26;8.50;93.50
43808;DHT22;29438;50.664;10.098;2024-02-04T12:43:54;8.40;93.70
43808;DHT22;29438;50.664;10.098;2024-02-04T12:46:20;8.30;93.80
43808;DHT22;29438;50.664;10.098;2024-02-04T12:48:57;8.40;93.90
43808;DHT22;29438;50.664;10.098;2024-02-04T12:51:28;8.30;93.50
43808;DHT22;29438;50.664;10.098;2024-02-04T12:54:07;8.40;93.70
43808;DHT22;29438;50.664;10.098;2024-02-04T12:56:59;8.50;93.80
43808;DHT22;29438;50.664;10.098;2024-02-04T13:02:05;8.50;93.40
43808;DHT22;29438;50.664;10.098;2024-02-04T13:04:35;8.50;93.30
43808;DHT22;29438;50.664;10.098;2024-02-04T13:07:00;8.50;93.20
43808;DHT22;29438;50.664;10.098;2024-02-04T13:09:26;8.60;93.50
43808;DHT22;29438;50.664;10.098;2024-02-04T13:11:51;8.50;93.40
43808;DHT22;29438;50.664;10.098;2024-02-04T13:14:17;8.50;93.40
43808;DHT22;29438;50.664;10.098;2024-02-04T13:16:43;8.60;93.60
43808;DHT22;29438;50.664;10.098;2024-02-04T13:19:08;8.70;93.10
43808;DHT22;29438;50.664;10.098;2024-02-04T13:21:34;8.80;93.00
43808;DHT22;29438;50.664;10.098;2024-02-04T13:23:59;8.70;92.60
43808;DHT22;29438;50.664;10.098;2024-02-04T13:26:25;8.70;92.50
43808;DHT22;29438;50.664;10.098;2024-02-04T13:28:51;8.70;92.40
43808;DHT22;29438;50.664;10.098;2024-02-04T13:31:16;8.70;92.40
43808;DHT22;29438;50.664;10.098;2024-02-04T13:33:42;8.70;92.30
43808;DHT22;29438;50.664;10.098;2024-02-04T13:36:07;8.80;92.30
43808;DHT22;29438;50.664;10.098;2024-02-04T13:38:34;8.70;92.00
43808;DHT22;29438;50.664;10.098;2024-02-04T13:41:00;8.70;91.70
43808;DHT22;29438;50.664;10.098;2024-02-04T13:43:25;8.70;92.10
43808;DHT22;29438;50.664;10.098;2024-02-04T13:45:51;8.70;92.30
43808;DHT22;29438;50.664;10.098;2024-02-04T13:48:17;8.60;92.60
43808;DHT22;29438;50.664;10.098;2024-02-04T13:50:44;8.60;92.80
43808;DHT22;29438;50.664;10.098;2024-02-04T13:53:10;8.60;92.70
43808;DHT22;29438;50.664;10.098;2024-02-04T13:55:36;8.60;92.70
43808;DHT22;29438;50.664;10.098;2024-02-04T13:58:03;8.60;92.50
43808;DHT22;29438;50.664;10.098;2024-02-04T14:00:28;8.60;92.60
43808;DHT22;29438;50.664;10.098;2024-02-04T14:02:54;8.70;91.90
43808;DHT22;29438;50.664;10.098;2024-02-04T14:05:19;8.70;92.00
43808;DHT22;29438;50.664;10.098;2024-02-04T14:07:45;8.70;92.10
43808;DHT22;29438;50.664;10.098;2024-02-04T14:10:11;8.60;92.20
43808;DHT22;29438;50.664;10.098;2024-02-04T14:12:38;8.60;92.30
43808;DHT22;29438;50.664;10.098;2024-02-04T14:15:05;8.60;92.50
43808;DHT22;29438;50.664;10.098;2024-02-04T14:17:32;8.60;92.30
43808;DHT22;29438;50.664;10.098;2024-02-04T14:19:57;8.60;92.20
43808;DHT22;29438;50.664;10.098;2024-02-04T14:22:24;8.60;92.20
43808;DHT22;29438;50.664;10.098;2024-02-04T14:24:50;8.60;92.30
43808;DHT22;29438;50.664;10.098;2024-02-04T14:27:15;8.60;92.50
43808;DHT22;29438;50.664;10.098;2024-02-04T14:29:41;8.60;92.70
43808;DHT22;29438;50.664;10.098;2024-02-04T14:32:06;8.60;92.60
43808;DHT22;29438;50.664;10.098;2024-02-04T14:34:32;8.50;92.80
43808;DHT22;29438;50.664;10.098;2024-02-04T14:36:57;8.60;92.90
43808;DHT22;29438;50.664;10.098;2024-02-04T14:39:23;8.60;93.00
43808;DHT22;29438;50.664;10.098;2024-02-04T14:41:48;8.50;93.10
43808;DHT22;29438;50.664;10.098;2024-02-04T14:44:14;8.50;93.40
43808;DHT22;29438;50.664;10.098;2024-02-04T14:46:39;8.50;93.20
43808;DHT22;29438;50.664;10.098;2024-02-04T14:49:05;8.50;93.10
43808;DHT22;29438;50.664;10.098;2024-02-04T14:51:31;8.50;93.10
43808;DHT22;29438;50.664;10.098;2024-02-04T14:53:57;8.50;93.20
43808;DHT22;29438;50.664;10.098;2024-02-04T14:56:23;8.50;93.30
43808;DHT22;29438;50.664;10.098;2024-02-04T14:58:49;8.50;93.40
43808;DHT22;29438;50.664;10.098;2024-02-04T15:01:14;8.50;93.60
43808;DHT22;29438;50.664;10.098;2024-02-04T15:03:41;8.50;93.80
43808;DHT22;29438;50.664;10.098;2024-02-04T15:06:06;8.40;93.80
43808;DHT22;29438;50.664;10.098;2024-02-04T15:08:32;8.40;93.60
43808;DHT22;29438;50.664;10.098;2024-02-04T15:10:57;8.50;93.30
43808;DHT22;29438;50.664;10.098;2024-02-04T15:13:23;8.50;93.50
43808;DHT22;29438;50.664;10.098;2024-02-04T15:15:49;8.40;93.60
43808;DHT22;29438;50.664;10.098;2024-02-04T15:18:15;8.30;93.90
43808;DHT22;29438;50.664;10.098;2024-02-04T15:20:40;8.30;94.00
43808;DHT22;29438;50.664;10.098;2024-02-04T15:23:06;8.20;94.10
43808;DHT22;29438;50.664;10.098;2024-02-04T15:25:33;8.30;94.30
43808;DHT22;29438;50.664;10.098;2024-02-04T15:27:59;8.30;94.30
43808;DHT22;29438;50.664;10.098;2024-02-04T15:30:24;8.20;94.40
43808;DHT22;29438;50.664;10.098;2024-02-04T15:32:50;8.20;94.40
43808;DHT22;29438;50.664;10.098;2024-02-04T15:35:17;8.20;94.50
43808;DHT22;29438;50.664;10.098;2024-02-04T15:37:43;8.20;94.50